createdAt,value
2018-06-24T00:00:17.735Z,4.40
2018-06-24T00:02:46.000Z,3.40
2018-06-24T00:05:14.212Z,4.17
2018-06-24T00:07:42.437Z,3.80
2018-06-24T00:10:10.649Z,4.10
2018-06-24T00:12:38.933Z,3.52
2018-06-24T00:15:07.244Z,4.20
2018-06-24T00:17:35.476Z,4.40
2018-06-24T00:20:03.845Z,4.40
2018-06-24T00:22:32.062Z,3.73
2018-06-24T00:25:00.281Z,3.50
2018-06-24T00:27:28.324Z,3.72
2018-06-24T00:29:56.537Z,3.85
2018-06-24T00:32:24.739Z,3.92
2018-06-24T00:34:52.917Z,3.58
2018-06-24T00:37:21.151Z,3.50
2018-06-24T00:39:49.378Z,3.40
2018-06-24T00:42:17.609Z,3.50
2018-06-24T00:45:02.319Z,3.67
2018-06-24T00:47:30.546Z,3.90
2018-06-24T00:49:58.743Z,3.85
2018-06-24T00:52:26.953Z,4.25
2018-06-24T00:54:55.188Z,4.10
2018-06-24T00:57:23.464Z,4.50
2018-06-24T01:00:02.673Z,4.50
2018-06-24T01:02:30.878Z,4.50
2018-06-24T01:04:59.101Z,4.00
2018-06-24T01:07:27.362Z,4.08
2018-06-24T01:09:55.556Z,3.77
2018-06-24T01:12:23.746Z,4.35
2018-06-24T01:14:51.939Z,4.10
2018-06-24T01:17:20.139Z,4.00
2018-06-24T01:19:48.406Z,3.52
2018-06-24T01:22:16.606Z,3.83
2018-06-24T01:24:44.832Z,4.30
2018-06-24T01:27:13.072Z,4.25
2018-06-24T01:29:41.348Z,4.07
2018-06-24T01:32:09.537Z,4.03
2018-06-24T01:34:37.745Z,4.12
2018-06-24T01:37:05.672Z,3.90
2018-06-24T01:39:33.897Z,3.92
2018-06-24T01:42:02.093Z,4.45
2018-06-24T01:44:30.329Z,3.90
2018-06-24T01:46:58.509Z,4.15
2018-06-24T01:49:26.756Z,3.55
2018-06-24T01:52:18.029Z,4.30
2018-06-24T01:54:46.293Z,3.80
2018-06-24T01:57:14.477Z,4.40
2018-06-24T01:59:42.693Z,3.92
2018-06-24T02:02:10.883Z,3.80
2018-06-24T02:04:39.100Z,4.30
2018-06-24T02:07:07.321Z,4.45
2018-06-24T02:09:35.633Z,4.50
2018-06-24T02:12:03.883Z,4.78
2018-06-24T02:14:31.851Z,4.20
2018-06-24T02:17:00.057Z,4.37
2018-06-24T02:19:28.356Z,4.50
2018-06-24T02:21:56.538Z,4.72
2018-06-24T02:24:24.735Z,5.35
2018-06-24T02:26:52.900Z,4.80
2018-06-24T02:29:21.137Z,4.70
2018-06-24T02:31:49.329Z,4.20
2018-06-24T02:34:17.529Z,4.65
2018-06-24T02:36:45.798Z,4.78
2018-06-24T02:39:13.960Z,4.08
2018-06-24T02:41:42.187Z,4.00
2018-06-24T02:44:10.360Z,5.08
2018-06-24T02:46:38.600Z,5.15
2018-06-24T02:49:06.796Z,4.90
2018-06-24T02:51:35.059Z,4.85
2018-06-24T02:54:03.305Z,4.80
2018-06-24T02:56:31.603Z,4.60
2018-06-24T02:58:59.768Z,4.55
2018-06-24T03:01:28.005Z,4.92
2018-06-24T03:03:56.197Z,4.12
2018-06-24T03:06:24.412Z,4.62
2018-06-24T03:08:52.572Z,5.15
2018-06-24T03:11:20.799Z,4.42
2018-06-24T03:13:48.984Z,5.40
2018-06-24T03:16:17.189Z,5.47
2018-06-24T03:18:45.381Z,5.47
2018-06-24T03:21:13.604Z,5.80
2018-06-24T03:23:41.801Z,5.70
2018-06-24T03:26:10.277Z,5.50
2018-06-24T03:28:38.278Z,5.72
2018-06-24T03:31:06.493Z,6.10
2018-06-24T03:33:34.677Z,5.50
2018-06-24T03:36:02.917Z,5.10
2018-06-24T03:38:31.180Z,5.80
2018-06-24T03:40:59.389Z,5.67
2018-06-24T03:43:27.596Z,5.70
2018-06-24T03:45:55.825Z,5.60
2018-06-24T03:48:24.132Z,5.78
2018-06-24T03:50:52.366Z,5.83
2018-06-24T03:53:20.549Z,6.35
2018-06-24T03:55:48.733Z,6.03
2018-06-24T03:58:16.962Z,6.30
2018-06-24T04:00:45.136Z,5.62
2018-06-24T04:03:13.348Z,6.28
2018-06-24T04:05:41.512Z,5.67
2018-06-24T04:08:09.728Z,6.70
2018-06-24T04:10:37.920Z,6.40
2018-06-24T04:13:06.341Z,7.30
2018-06-24T04:15:34.561Z,6.90
2018-06-24T04:18:02.860Z,7.27
2018-06-24T04:20:31.033Z,7.20
2018-06-24T04:22:59.237Z,7.20
2018-06-24T04:25:27.415Z,6.35
2018-06-24T04:27:55.704Z,6.93
2018-06-24T04:30:23.929Z,6.45
2018-06-24T04:32:52.545Z,7.17
2018-06-24T04:35:20.708Z,7.70
2018-06-24T04:37:48.912Z,7.10
2018-06-24T04:40:17.137Z,6.10
2018-06-24T04:42:45.358Z,7.00
2018-06-24T04:45:13.585Z,6.40
2018-06-24T04:47:41.788Z,6.72
2018-06-24T04:50:09.953Z,7.10
2018-06-24T04:52:38.172Z,7.30
2018-06-24T04:55:06.392Z,6.50
2018-06-24T04:57:34.625Z,7.25
2018-06-24T05:00:02.833Z,6.60
2018-06-24T05:02:31.053Z,7.33
2018-06-24T05:04:59.257Z,6.53
2018-06-24T05:07:27.561Z,5.72
2018-06-24T05:09:55.728Z,6.30
2018-06-24T05:12:23.932Z,6.87
2018-06-24T05:14:52.200Z,7.67
2018-06-24T05:17:20.365Z,6.70
2018-06-24T05:19:48.754Z,6.90
2018-06-24T05:22:16.924Z,6.70
2018-06-24T05:24:45.244Z,6.40
2018-06-24T05:27:16.201Z,6.35
2018-06-24T05:29:44.489Z,6.17
2018-06-24T05:32:12.801Z,5.47
2018-06-24T05:34:41.025Z,6.25
2018-06-24T05:37:09.221Z,5.80
2018-06-24T05:39:37.432Z,5.90
2018-06-24T05:42:05.644Z,5.50
2018-06-24T05:44:33.838Z,6.37
2018-06-24T05:47:03.338Z,6.20
2018-06-24T05:49:31.601Z,5.80
2018-06-24T05:51:59.789Z,6.12
2018-06-24T05:54:28.010Z,5.90
2018-06-24T05:56:56.246Z,5.55
2018-06-24T05:59:24.488Z,5.42
2018-06-24T06:01:52.780Z,5.00
2018-06-24T06:04:21.080Z,5.60
2018-06-24T06:06:49.492Z,5.20
2018-06-24T06:09:17.460Z,5.58
2018-06-24T06:11:45.688Z,5.03
2018-06-24T06:14:13.919Z,4.90
2018-06-24T06:16:42.122Z,4.60
2018-06-24T06:19:10.378Z,4.70
2018-06-24T06:21:38.568Z,4.92
2018-06-24T06:24:06.810Z,4.95
2018-06-24T06:26:34.996Z,4.80
2018-06-24T06:29:03.293Z,5.10
2018-06-24T06:31:31.465Z,5.15
2018-06-24T06:33:59.706Z,4.83
2018-06-24T06:36:27.940Z,4.70
2018-06-24T06:38:56.148Z,4.07
2018-06-24T06:41:24.516Z,4.70
2018-06-24T06:43:52.787Z,4.57
2018-06-24T06:46:24.114Z,3.83
2018-06-24T06:48:52.357Z,4.40
2018-06-24T06:51:20.584Z,4.20
2018-06-24T06:53:48.749Z,5.15
2018-06-24T06:56:16.986Z,5.28
2018-06-24T06:58:45.280Z,4.50
2018-06-24T07:01:13.621Z,4.50
2018-06-24T07:03:41.965Z,4.60
2018-06-24T07:06:10.189Z,4.78
2018-06-24T07:08:38.373Z,5.20
2018-06-24T07:11:06.630Z,5.33
2018-06-24T07:13:34.792Z,5.63
2018-06-24T07:16:03.096Z,4.90
2018-06-24T07:18:31.335Z,4.90
2018-06-24T07:20:59.529Z,5.00
2018-06-24T07:23:27.698Z,5.60
2018-06-24T07:25:55.980Z,5.40
2018-06-24T07:28:24.250Z,6.20
2018-06-24T07:30:52.485Z,5.55
2018-06-24T07:33:20.697Z,5.30
2018-06-24T07:35:48.977Z,4.65
2018-06-24T07:38:17.130Z,4.73
2018-06-24T07:40:45.388Z,5.83
2018-06-24T07:43:13.560Z,5.97
2018-06-24T07:45:41.552Z,5.60
2018-06-24T07:48:09.718Z,5.83
2018-06-24T07:50:37.997Z,5.25
2018-06-24T07:53:06.181Z,5.10
2018-06-24T07:55:34.410Z,5.10
2018-06-24T07:58:02.949Z,4.63
2018-06-24T08:00:31.222Z,5.80
2018-06-24T08:02:59.470Z,6.03
2018-06-24T08:05:27.625Z,5.13
2018-06-24T08:07:55.862Z,4.70
2018-06-24T08:10:24.022Z,4.37
2018-06-24T08:12:52.240Z,4.93
2018-06-24T08:15:20.531Z,5.50
2018-06-24T08:17:48.889Z,5.83
2018-06-24T08:20:17.094Z,5.60
2018-06-24T08:22:45.400Z,4.70
2018-06-24T08:25:13.596Z,5.37
2018-06-24T08:27:41.820Z,4.30
2018-06-24T08:30:10.033Z,5.77
2018-06-24T08:32:38.234Z,4.90
2018-06-24T08:35:06.446Z,5.53
2018-06-24T08:37:34.653Z,5.20
2018-06-24T08:40:02.809Z,5.40
2018-06-24T08:42:31.034Z,5.03
2018-06-24T08:44:59.213Z,5.73
2018-06-24T08:47:27.433Z,5.57
2018-06-24T08:49:55.625Z,5.20
2018-06-24T08:52:23.842Z,5.65
2018-06-24T08:54:52.009Z,5.20
2018-06-24T08:57:20.212Z,6.67
2018-06-24T08:59:48.398Z,5.23
2018-06-24T09:02:16.654Z,5.40
2018-06-24T09:04:44.826Z,5.40
2018-06-24T09:07:13.226Z,5.80
2018-06-24T09:09:41.402Z,5.90
2018-06-24T09:12:09.641Z,5.70
2018-06-24T09:14:37.830Z,5.70
2018-06-24T09:17:06.057Z,5.53
2018-06-24T09:19:34.296Z,4.90
2018-06-24T09:22:02.748Z,5.50
2018-06-24T09:24:30.968Z,5.20
2018-06-24T09:26:59.167Z,5.23
2018-06-24T09:29:27.477Z,4.60
2018-06-24T09:31:55.773Z,5.57
2018-06-24T09:34:24.005Z,5.70
2018-06-24T09:36:52.269Z,5.77
2018-06-24T09:39:20.517Z,5.50
2018-06-24T09:41:48.751Z,4.80
2018-06-24T09:44:16.994Z,4.50
2018-06-24T09:46:45.193Z,4.70
2018-06-24T09:49:13.481Z,6.10
2018-06-24T09:51:41.685Z,5.87
2018-06-24T09:54:09.941Z,5.67
2018-06-24T09:56:38.208Z,4.30
2018-06-24T09:59:06.469Z,4.30
2018-06-24T10:01:34.712Z,4.33
2018-06-24T10:04:02.999Z,4.67
2018-06-24T10:06:31.202Z,6.20
2018-06-24T10:08:59.469Z,5.80
2018-06-24T10:11:27.762Z,5.03
2018-06-24T10:13:56.300Z,4.27
2018-06-24T10:16:24.485Z,4.67
2018-06-24T10:18:52.868Z,4.80
2018-06-24T10:21:21.181Z,4.73
2018-06-24T10:23:50.750Z,4.93
2018-06-24T10:26:19.109Z,4.00
2018-06-24T10:28:47.413Z,4.97
2018-06-24T10:31:15.522Z,3.97
2018-06-24T10:33:43.814Z,3.70
2018-06-24T10:36:12.048Z,4.47
2018-06-24T10:38:40.550Z,4.40
2018-06-24T10:41:09.429Z,4.10
2018-06-24T10:43:37.973Z,4.40
2018-06-24T10:46:06.269Z,3.73
2018-06-24T10:48:34.667Z,3.57
2018-06-24T10:51:03.216Z,3.23
2018-06-24T10:53:31.806Z,2.97
2018-06-24T10:55:59.993Z,3.97
2018-06-24T10:58:28.253Z,3.90
2018-06-24T11:00:56.524Z,3.73
2018-06-24T11:03:24.789Z,4.73
2018-06-24T11:05:53.140Z,4.10
2018-06-24T11:08:21.397Z,4.00
2018-06-24T11:10:49.627Z,4.13
2018-06-24T11:13:17.899Z,5.13
2018-06-24T11:15:46.138Z,3.80
2018-06-24T11:18:14.422Z,3.47
2018-06-24T11:20:42.709Z,3.50
2018-06-24T11:23:11.348Z,3.47
2018-06-24T11:25:39.598Z,3.87
2018-06-24T11:28:07.894Z,3.90
2018-06-24T11:30:36.147Z,4.33
2018-06-24T11:33:04.140Z,3.53
2018-06-24T11:35:32.422Z,3.83
2018-06-24T11:38:00.951Z,3.53
2018-06-24T11:40:29.176Z,2.80
2018-06-24T11:42:57.446Z,3.90
2018-06-24T11:45:25.701Z,3.30
2018-06-24T11:47:53.956Z,3.00
2018-06-24T11:50:22.142Z,2.80
2018-06-24T11:52:50.385Z,2.43
2018-06-24T11:55:19.225Z,2.50
2018-06-24T11:57:47.488Z,2.90
2018-06-24T12:00:15.771Z,3.50
2018-06-24T12:02:44.091Z,2.70
2018-06-24T12:05:12.317Z,3.70
2018-06-24T12:07:40.678Z,4.00
2018-06-24T12:10:08.933Z,3.93
2018-06-24T12:12:37.142Z,3.30
2018-06-24T12:15:05.470Z,3.50
2018-06-24T12:17:33.698Z,3.70
2018-06-24T12:20:01.942Z,3.33
2018-06-24T12:22:30.122Z,3.50
2018-06-24T12:24:58.387Z,4.30
2018-06-24T12:27:26.638Z,3.50
2018-06-24T12:29:54.938Z,3.30
2018-06-24T12:32:23.177Z,3.63
2018-06-24T12:34:51.406Z,3.80
2018-06-24T12:37:19.612Z,3.47
2018-06-24T12:39:47.854Z,3.50
2018-06-24T12:42:16.099Z,3.83
2018-06-24T12:44:44.321Z,2.80
2018-06-24T12:47:12.513Z,3.40
2018-06-24T12:49:40.738Z,3.27
2018-06-24T12:52:08.921Z,3.27
2018-06-24T12:54:37.158Z,2.67
2018-06-24T12:57:05.405Z,3.93
2018-06-24T12:59:33.913Z,2.93
2018-06-24T13:02:01.869Z,2.67
2018-06-24T13:04:30.245Z,3.60
2018-06-24T13:06:59.213Z,3.53
2018-06-24T13:09:27.498Z,3.10
2018-06-24T13:11:56.171Z,3.50
2018-06-24T13:14:24.585Z,3.03
2018-06-24T13:16:53.134Z,2.90
2018-06-24T13:19:21.414Z,2.67
2018-06-24T13:21:49.797Z,3.17
2018-06-24T13:24:17.990Z,3.50
2018-06-24T13:26:46.313Z,2.97
2018-06-24T13:29:14.560Z,4.00
2018-06-24T13:31:42.865Z,3.60
2018-06-24T13:34:11.141Z,3.40
2018-06-24T13:36:39.372Z,3.40
2018-06-24T13:39:09.365Z,3.30
2018-06-24T13:41:37.616Z,3.87
2018-06-24T13:44:06.237Z,3.77
2018-06-24T13:46:34.460Z,4.13
2018-06-24T13:49:02.810Z,4.00
2018-06-24T13:51:31.026Z,2.93
2018-06-24T13:53:59.224Z,3.37
2018-06-24T13:56:27.481Z,3.17
2018-06-24T13:58:56.915Z,3.20
2018-06-24T14:01:25.174Z,2.53
2018-06-24T14:03:53.396Z,2.57
2018-06-24T14:06:21.613Z,2.23
2018-06-24T14:08:49.797Z,2.23
2018-06-24T14:11:18.065Z,2.57
2018-06-24T14:13:46.253Z,2.20
2018-06-24T14:16:14.481Z,3.17
2018-06-24T14:18:42.666Z,2.10
2018-06-24T14:21:11.622Z,2.53
2018-06-24T14:23:39.883Z,2.10
2018-06-24T14:26:08.158Z,2.37
2018-06-24T14:28:36.474Z,1.70
2018-06-24T14:31:05.456Z,1.97
2018-06-24T14:33:33.709Z,2.10
2018-06-24T14:36:02.013Z,1.80
2018-06-24T14:38:30.267Z,2.67
2018-06-24T14:40:58.488Z,2.33
2018-06-24T14:43:26.673Z,2.10
2018-06-24T14:45:54.918Z,1.60
2018-06-24T14:48:23.743Z,2.43
2018-06-24T14:50:52.018Z,1.93
2018-06-24T14:53:20.285Z,1.83
2018-06-24T14:55:48.488Z,1.80
2018-06-24T14:58:16.706Z,2.00
2018-06-24T15:00:44.911Z,2.40
2018-06-24T15:03:13.132Z,2.57
2018-06-24T15:05:41.477Z,1.80
2018-06-24T15:08:09.742Z,2.00
2018-06-24T15:10:37.917Z,2.10
2018-06-24T15:13:06.146Z,2.20
2018-06-24T15:15:34.327Z,1.90
2018-06-24T15:18:02.547Z,1.90
2018-06-24T15:20:30.769Z,2.17
2018-06-24T15:22:59.049Z,1.97
2018-06-24T15:25:27.353Z,1.60
2018-06-24T15:27:55.833Z,1.73
2018-06-24T15:30:24.026Z,2.00
2018-06-24T15:32:52.307Z,2.50
2018-06-24T15:35:20.492Z,1.60
2018-06-24T15:37:48.861Z,1.70
2018-06-24T15:40:17.089Z,1.90
2018-06-24T15:42:45.379Z,2.17
2018-06-24T15:45:13.598Z,1.63
2018-06-24T15:47:41.865Z,1.63
2018-06-24T15:50:10.050Z,1.90
2018-06-24T15:52:38.365Z,1.80
2018-06-24T15:55:06.657Z,1.90
2018-06-24T15:57:34.900Z,1.80
2018-06-24T16:00:03.209Z,1.43
2018-06-24T16:02:31.449Z,2.10
2018-06-24T16:04:59.653Z,1.90
2018-06-24T16:07:27.856Z,1.53
2018-06-24T16:09:56.120Z,1.73
2018-06-24T16:12:24.307Z,2.07
2018-06-24T16:14:52.582Z,1.70
2018-06-24T16:17:20.782Z,1.97
2018-06-24T16:19:48.997Z,2.50
2018-06-24T16:22:17.190Z,2.60
2018-06-24T16:24:45.400Z,1.60
2018-06-24T16:27:13.634Z,1.77
2018-06-24T16:29:41.857Z,1.43
2018-06-24T16:32:10.053Z,2.00
2018-06-24T16:34:38.274Z,1.90
2018-06-24T16:37:06.509Z,2.60
2018-06-24T16:39:35.300Z,1.70
2018-06-24T16:42:04.122Z,1.97
2018-06-24T16:44:32.827Z,1.70
2018-06-24T16:47:01.554Z,1.97
2018-06-24T16:49:30.352Z,1.80
2018-06-24T16:51:59.164Z,2.47
2018-06-24T16:54:27.941Z,1.67
2018-06-24T16:56:56.645Z,1.77
2018-06-24T16:59:25.623Z,2.30
2018-06-24T17:01:54.581Z,1.70
2018-06-24T17:04:23.363Z,2.13
2018-06-24T17:06:51.989Z,1.60
2018-06-24T17:09:20.199Z,1.60
2018-06-24T17:11:48.405Z,2.03
2018-06-24T17:14:16.606Z,2.00
2018-06-24T17:16:44.794Z,2.00
2018-06-24T17:19:13.017Z,1.60
2018-06-24T17:21:41.254Z,2.13
2018-06-24T17:24:09.464Z,2.00
2018-06-24T17:26:37.658Z,1.50
2018-06-24T17:29:05.906Z,2.07
2018-06-24T17:31:34.101Z,1.90
2018-06-24T17:34:02.374Z,2.00
2018-06-24T17:36:30.666Z,2.00
2018-06-24T17:38:58.874Z,1.70
2018-06-24T17:41:27.264Z,1.47
2018-06-24T17:43:55.675Z,1.80
2018-06-24T17:46:24.097Z,1.90
2018-06-24T17:48:52.368Z,1.73
2018-06-24T17:51:20.664Z,1.73
2018-06-24T17:53:48.970Z,1.70
2018-06-24T17:56:17.196Z,2.07
2018-06-24T17:58:45.421Z,2.10
2018-06-24T18:01:13.749Z,1.70
2018-06-24T18:03:42.145Z,2.17
2018-06-24T18:06:10.546Z,1.73
2018-06-24T18:08:38.781Z,1.93
2018-06-24T18:11:07.106Z,1.53
2018-06-24T18:13:35.327Z,1.77
2018-06-24T18:16:03.706Z,1.70
2018-06-24T18:18:31.986Z,1.60
2018-06-24T18:21:00.482Z,1.90
2018-06-24T18:23:28.701Z,2.43
2018-06-24T18:25:57.070Z,1.60
2018-06-24T18:28:25.278Z,1.73
2018-06-24T18:30:53.526Z,1.67
2018-06-24T18:33:21.806Z,1.70
2018-06-24T18:35:50.053Z,1.60
2018-06-24T18:38:19.197Z,2.03
2018-06-24T18:40:47.444Z,1.90
2018-06-24T18:43:15.798Z,2.00
2018-06-24T18:45:44.154Z,2.10
2018-06-24T18:48:12.336Z,1.73
2018-06-24T18:50:40.662Z,2.03
2018-06-24T18:53:08.903Z,1.60
2018-06-24T18:55:37.148Z,1.90
2018-06-24T18:58:05.873Z,2.17
2018-06-24T19:00:34.157Z,2.60
2018-06-24T19:03:02.610Z,2.03
2018-06-24T19:05:31.319Z,2.43
2018-06-24T19:07:59.701Z,1.90
2018-06-24T19:10:27.902Z,2.10
2018-06-24T19:12:56.159Z,2.67
2018-06-24T19:15:24.511Z,1.90
2018-06-24T19:17:52.742Z,2.57
2018-06-24T19:20:21.019Z,1.90
2018-06-24T19:22:49.772Z,2.00
2018-06-24T19:25:18.033Z,1.80
2018-06-24T19:27:46.397Z,2.40
2018-06-24T19:30:14.717Z,2.00
2018-06-24T19:32:43.002Z,1.80
2018-06-24T19:35:11.161Z,1.23
2018-06-24T19:37:39.410Z,1.97
2018-06-24T19:40:07.690Z,1.70
2018-06-24T19:42:35.905Z,1.50
2018-06-24T19:45:04.581Z,1.50
2018-06-24T19:47:33.441Z,2.23
2018-06-24T19:50:01.670Z,2.10
2018-06-24T19:52:30.615Z,1.77
2018-06-24T19:54:58.809Z,2.03
2018-06-24T19:57:27.045Z,1.47
2018-06-24T19:59:55.217Z,1.50
2018-06-24T20:02:23.544Z,1.53
2018-06-24T20:04:51.727Z,1.83
2018-06-24T20:07:20.120Z,1.77
2018-06-24T20:09:48.314Z,1.90
2018-06-24T20:12:16.542Z,2.23
2018-06-24T20:14:44.875Z,1.70
2018-06-24T20:17:13.169Z,1.50
2018-06-24T20:19:41.422Z,1.77
2018-06-24T20:22:10.529Z,2.10
2018-06-24T20:24:39.677Z,2.10
2018-06-24T20:27:08.153Z,2.67
2018-06-24T20:29:36.390Z,2.10
2018-06-24T20:32:04.613Z,2.10
2018-06-24T20:34:33.233Z,2.30
2018-06-24T20:37:01.421Z,1.90
2018-06-24T20:39:29.613Z,2.40
2018-06-24T20:41:57.948Z,2.13
2018-06-24T20:44:26.261Z,2.40
2018-06-24T20:46:54.457Z,2.97
2018-06-24T20:49:22.428Z,2.57
2018-06-24T20:51:50.947Z,3.03
2018-06-24T20:54:19.257Z,3.13
2018-06-24T20:56:47.463Z,2.20
2018-06-24T20:59:15.673Z,2.50
2018-06-24T21:01:43.856Z,3.50
2018-06-24T21:04:12.085Z,1.80
2018-06-24T21:06:40.294Z,2.50
2018-06-24T21:09:10.204Z,1.80
2018-06-24T21:11:38.422Z,1.70
2018-06-24T21:14:06.736Z,2.00
2018-06-24T21:16:34.925Z,2.27
2018-06-24T21:19:03.204Z,2.93
2018-06-24T21:21:31.373Z,2.50
2018-06-24T21:23:59.585Z,3.20
2018-06-24T21:26:27.868Z,2.17
2018-06-24T21:28:56.085Z,2.70
2018-06-24T21:31:24.279Z,2.30
2018-06-24T21:33:52.982Z,2.27
2018-06-24T21:36:21.639Z,2.10
2018-06-24T21:38:50.370Z,2.43
2018-06-24T21:41:19.041Z,2.23
2018-06-24T21:43:47.732Z,2.40
2018-06-24T21:46:16.386Z,2.30
2018-06-24T21:48:45.317Z,2.97
2018-06-24T21:51:14.014Z,2.77
2018-06-24T21:53:42.248Z,3.10
2018-06-24T21:56:10.608Z,2.60
2018-06-24T21:58:38.840Z,2.30
2018-06-24T22:01:07.145Z,2.93
2018-06-24T22:03:35.320Z,2.70
2018-06-24T22:06:03.624Z,2.80
2018-06-24T22:08:31.835Z,3.13
2018-06-24T22:11:00.066Z,2.50
2018-06-24T22:13:28.288Z,2.97
2018-06-24T22:15:56.536Z,2.50
2018-06-24T22:18:24.714Z,2.90
2018-06-24T22:20:52.952Z,3.13
2018-06-24T22:23:21.146Z,2.80
2018-06-24T22:25:49.370Z,2.60
2018-06-24T22:28:17.584Z,3.07
2018-06-24T22:30:45.849Z,2.70
2018-06-24T22:33:14.036Z,2.93
2018-06-24T22:35:42.284Z,2.40
2018-06-24T22:38:10.480Z,2.90
2018-06-24T22:40:38.688Z,3.30
2018-06-24T22:43:06.876Z,3.50
2018-06-24T22:45:35.142Z,3.10
2018-06-24T22:48:03.378Z,2.50
2018-06-24T22:50:31.596Z,2.87
2018-06-24T22:52:59.833Z,3.33
2018-06-24T22:55:28.049Z,3.63
2018-06-24T22:57:56.208Z,3.80
2018-06-24T23:00:24.541Z,3.40
2018-06-24T23:02:52.757Z,3.87
2018-06-24T23:05:20.980Z,4.10
2018-06-24T23:07:49.209Z,4.80
2018-06-24T23:10:17.468Z,4.95
2018-06-24T23:12:45.668Z,4.63
2018-06-24T23:15:13.853Z,4.83
2018-06-24T23:17:42.088Z,5.40
2018-06-24T23:20:10.299Z,4.97
2018-06-24T23:22:38.531Z,5.50
2018-06-24T23:25:06.812Z,5.92
2018-06-24T23:27:35.041Z,5.30
2018-06-24T23:30:03.769Z,6.00
2018-06-24T23:32:32.013Z,5.33
2018-06-24T23:35:00.301Z,5.30
2018-06-24T23:37:28.555Z,5.58
2018-06-24T23:39:56.756Z,5.90
2018-06-24T23:42:24.997Z,5.97
2018-06-24T23:44:53.198Z,5.40
2018-06-24T23:47:21.457Z,6.00
2018-06-24T23:49:49.656Z,6.30
2018-06-24T23:52:17.884Z,6.40
2018-06-24T23:54:46.094Z,6.22
2018-06-24T23:57:14.285Z,6.80
2018-06-24T23:59:42.259Z,6.40
